createdAt,value
2022-09-28T00:01:19.044Z,17.10
2022-09-28T00:03:50.587Z,17.58
2022-09-28T00:06:20.324Z,17.67
2022-09-28T00:08:50.313Z,17.69
2022-09-28T00:11:20.891Z,17.81
2022-09-28T00:13:51.757Z,17.34
2022-09-28T00:16:24.008Z,18.10
2022-09-28T00:18:53.887Z,18.21
2022-09-28T00:21:23.744Z,17.95
2022-09-28T00:24:11.565Z,17.14
2022-09-28T00:26:41.848Z,17.41
2022-09-28T00:29:17.514Z,17.63
2022-09-28T00:31:46.022Z,17.65
2022-09-28T00:34:16.981Z,17.90
2022-09-28T00:36:46.910Z,17.97
2022-09-28T00:39:17.521Z,17.84
2022-09-28T00:41:46.743Z,17.93
2022-09-28T00:44:36.707Z,17.60
2022-09-28T00:47:11.048Z,17.82
2022-09-28T00:49:43.494Z,17.96
2022-09-28T00:52:15.741Z,17.62
2022-09-28T00:54:45.728Z,18.19
2022-09-28T00:57:15.440Z,18.20
2022-09-28T00:59:44.297Z,17.38
2022-09-28T01:02:12.574Z,17.73
2022-09-28T01:04:42.809Z,17.39
2022-09-28T01:07:12.747Z,17.61
2022-09-28T01:09:41.239Z,17.31
2022-09-28T01:12:09.935Z,17.45
2022-09-28T01:14:38.459Z,17.61
2022-09-28T01:17:13.639Z,17.77
2022-09-28T01:20:11.480Z,17.68
2022-09-28T01:23:13.181Z,18.11
2022-09-28T01:25:47.030Z,17.87
2022-09-28T01:28:19.235Z,17.76
2022-09-28T01:30:52.549Z,17.45
2022-09-28T01:33:26.441Z,17.86
2022-09-28T01:36:00.108Z,17.83
2022-09-28T01:38:34.603Z,17.68
2022-09-28T01:41:04.336Z,17.53
2022-09-28T01:43:38.980Z,17.70
2022-09-28T01:46:14.148Z,17.88
2022-09-28T01:48:47.897Z,17.86
2022-09-28T01:51:21.247Z,17.52
2022-09-28T01:53:54.114Z,17.08
2022-09-28T01:56:29.248Z,17.43
2022-09-28T01:59:04.595Z,17.59
2022-09-28T02:01:39.234Z,17.78
2022-09-28T02:04:13.474Z,17.69
2022-09-28T02:06:49.271Z,17.77
2022-09-28T02:09:22.469Z,17.71
2022-09-28T02:11:56.339Z,17.20
2022-09-28T02:14:27.729Z,17.45
2022-09-28T02:16:57.712Z,16.88
2022-09-28T02:19:28.596Z,16.75
2022-09-28T02:22:02.967Z,16.52
2022-09-28T02:24:39.080Z,16.83
2022-09-28T02:27:15.120Z,17.39
2022-09-28T02:29:44.887Z,17.19
2022-09-28T02:32:13.177Z,16.96
2022-09-28T02:34:41.426Z,17.32
2022-09-28T02:37:10.022Z,17.64
2022-09-28T02:39:38.187Z,17.77
2022-09-28T02:42:18.328Z,17.95
2022-09-28T02:45:02.363Z,17.66
2022-09-28T02:47:48.137Z,17.44
2022-09-28T02:50:23.520Z,17.30
2022-09-28T02:53:23.465Z,17.72
2022-09-28T02:56:06.520Z,17.85
2022-09-28T02:58:43.204Z,17.70
2022-09-28T03:01:24.944Z,17.70
2022-09-28T03:03:59.225Z,17.83
2022-09-28T03:06:33.627Z,17.84
2022-09-28T03:09:07.076Z,17.79
2022-09-28T03:11:40.895Z,17.83
2022-09-28T03:14:09.321Z,17.41
2022-09-28T03:16:39.026Z,17.34
2022-09-28T03:19:07.244Z,17.49
2022-09-28T03:21:35.564Z,17.50
2022-09-28T03:24:06.103Z,17.36
2022-09-28T03:26:34.734Z,17.47
2022-09-28T03:29:03.117Z,17.59
2022-09-28T03:31:31.432Z,17.31
2022-09-28T03:34:01.083Z,17.55
2022-09-28T03:36:29.291Z,16.96
2022-09-28T03:38:59.675Z,16.51
2022-09-28T03:41:28.933Z,16.42
2022-09-28T03:43:57.291Z,16.27
2022-09-28T03:46:25.693Z,15.20
2022-09-28T03:48:53.939Z,16.78
2022-09-28T03:51:23.613Z,17.04
2022-09-28T03:53:51.839Z,16.99
2022-09-28T03:56:20.141Z,16.71
2022-09-28T03:58:48.449Z,17.05
2022-09-28T04:01:18.068Z,16.10
2022-09-28T04:03:47.173Z,17.41
2022-09-28T04:06:16.057Z,17.02
2022-09-28T04:08:45.716Z,17.48
2022-09-28T04:11:14.005Z,17.33
2022-09-28T04:13:42.419Z,17.35
2022-09-28T04:16:12.120Z,17.04
2022-09-28T04:18:40.963Z,17.05
2022-09-28T04:21:12.889Z,17.32
2022-09-28T04:23:41.512Z,17.54
2022-09-28T04:26:17.790Z,17.29
2022-09-28T04:29:06.578Z,16.87
2022-09-28T04:31:40.200Z,16.74
2022-09-28T04:34:08.579Z,17.41
2022-09-28T04:36:37.246Z,16.88
2022-09-28T04:39:05.536Z,16.86
2022-09-28T04:41:35.420Z,17.10
2022-09-28T04:44:04.429Z,16.94
2022-09-28T04:46:33.004Z,17.40
2022-09-28T04:49:01.394Z,17.52
2022-09-28T04:51:32.695Z,17.64
2022-09-28T04:54:01.136Z,17.62
2022-09-28T04:56:29.463Z,17.35
2022-09-28T04:58:59.191Z,17.65
2022-09-28T05:01:27.621Z,17.76
2022-09-28T05:03:56.364Z,17.78
2022-09-28T05:06:28.094Z,17.77
2022-09-28T05:08:57.623Z,17.83
2022-09-28T05:11:26.035Z,17.56
2022-09-28T05:13:54.264Z,17.86
2022-09-28T05:16:25.953Z,17.48
2022-09-28T05:18:56.643Z,17.70
2022-09-28T05:21:29.403Z,17.59
2022-09-28T05:23:58.417Z,17.23
2022-09-28T05:26:27.105Z,17.80
2022-09-28T05:28:55.384Z,17.66
2022-09-28T05:31:27.322Z,17.28
2022-09-28T05:33:55.729Z,17.08
2022-09-28T05:36:24.044Z,17.67
2022-09-28T05:38:52.269Z,17.97
2022-09-28T05:41:20.565Z,17.51
2022-09-28T05:43:48.921Z,17.07
2022-09-28T05:46:18.562Z,17.41
2022-09-28T05:48:48.406Z,17.84
2022-09-28T05:51:16.715Z,17.89
2022-09-28T05:53:44.929Z,17.33
2022-09-28T05:56:13.364Z,17.37
2022-09-28T05:58:41.600Z,17.98
2022-09-28T06:01:09.963Z,17.65
2022-09-28T06:03:38.259Z,17.86
2022-09-28T06:06:10.885Z,17.51
2022-09-28T06:08:44.373Z,18.08
2022-09-28T06:11:13.469Z,18.19
2022-09-28T06:13:41.987Z,18.50
2022-09-28T06:16:16.131Z,18.39
2022-09-28T06:18:47.602Z,18.21
2022-09-28T06:21:17.365Z,18.29
2022-09-28T06:23:49.244Z,18.14
2022-09-28T06:26:18.485Z,18.12
2022-09-28T06:28:47.228Z,18.48
2022-09-28T06:31:16.040Z,18.56
2022-09-28T06:33:44.618Z,18.42
2022-09-28T06:36:13.546Z,18.18
2022-09-28T06:38:43.377Z,18.36
2022-09-28T06:41:12.911Z,18.64
2022-09-28T06:43:41.230Z,18.74
2022-09-28T06:46:10.603Z,18.75
2022-09-28T06:48:38.892Z,17.64
2022-09-28T06:51:07.432Z,18.02
2022-09-28T06:53:35.895Z,18.12
2022-09-28T06:56:07.062Z,18.25
2022-09-28T06:58:35.363Z,18.42
2022-09-28T07:01:04.169Z,16.75
2022-09-28T07:03:32.573Z,18.11
2022-09-28T07:06:00.924Z,18.13
2022-09-28T07:08:29.308Z,18.27
2022-09-28T07:10:57.583Z,18.50
2022-09-28T07:13:48.561Z,18.55
2022-09-28T07:16:19.720Z,18.78
2022-09-28T07:18:51.121Z,18.25
2022-09-28T07:21:27.556Z,19.24
2022-09-28T07:23:57.744Z,19.76
2022-09-28T07:26:26.241Z,19.49
2022-09-28T07:28:56.273Z,19.35
2022-09-28T07:31:26.411Z,18.98
2022-09-28T07:33:56.517Z,19.18
2022-09-28T07:36:24.862Z,19.44
2022-09-28T07:38:53.156Z,19.66
2022-09-28T07:41:32.359Z,19.63
2022-09-28T07:44:06.309Z,18.79
2022-09-28T07:46:35.038Z,19.74
2022-09-28T07:49:08.430Z,20.54
2022-09-28T07:51:39.936Z,20.09
2022-09-28T07:54:08.304Z,20.19
2022-09-28T07:56:36.569Z,20.43
2022-09-28T07:59:06.196Z,20.72
2022-09-28T08:01:34.529Z,20.42
2022-09-28T08:04:03.667Z,21.52
2022-09-28T08:06:32.092Z,21.13
2022-09-28T08:09:01.923Z,21.75
2022-09-28T08:11:30.757Z,22.55
2022-09-28T08:14:00.437Z,21.89
2022-09-28T08:16:30.431Z,22.11
2022-09-28T08:18:58.749Z,21.58
2022-09-28T08:21:44.337Z,22.89
2022-09-28T08:24:13.059Z,24.11
2022-09-28T08:26:41.401Z,24.38
2022-09-28T08:29:09.872Z,24.98
2022-09-28T08:31:39.505Z,24.93
2022-09-28T08:34:08.062Z,25.83
2022-09-28T08:36:36.253Z,25.41
2022-09-28T08:39:04.568Z,25.45
2022-09-28T08:41:41.981Z,26.15
2022-09-28T08:44:16.088Z,26.35
2022-09-28T08:46:49.597Z,26.47
2022-09-28T08:49:30.901Z,26.90
2022-09-28T08:52:04.609Z,26.58
2022-09-28T08:54:41.917Z,27.83
2022-09-28T08:57:16.848Z,27.78
2022-09-28T08:59:52.590Z,26.93
2022-09-28T09:02:27.220Z,28.63
2022-09-28T09:04:57.117Z,28.74
2022-09-28T09:07:57.696Z,28.57
2022-09-28T09:10:46.892Z,29.48
2022-09-28T09:13:43.363Z,30.05
2022-09-28T09:16:21.969Z,28.82
2022-09-28T09:19:00.092Z,28.53
2022-09-28T09:21:41.104Z,28.73
2022-09-28T09:24:27.370Z,28.90
2022-09-28T09:27:07.391Z,29.73
2022-09-28T09:29:52.412Z,28.76
2022-09-28T09:32:35.696Z,30.57
2022-09-28T09:35:43.910Z,29.19
2022-09-28T09:38:28.672Z,30.66
2022-09-28T09:41:08.622Z,30.04
2022-09-28T09:44:10.493Z,30.22
2022-09-28T09:46:44.089Z,30.82
2022-09-28T09:49:19.033Z,31.26
2022-09-28T09:51:54.796Z,31.94
2022-09-28T09:54:28.907Z,31.84
2022-09-28T09:57:03.770Z,30.97
2022-09-28T09:59:35.413Z,30.08
2022-09-28T10:02:11.928Z,31.45
2022-09-28T10:04:44.756Z,31.39
2022-09-28T10:07:21.980Z,31.46
2022-09-28T10:09:52.080Z,30.86
2022-09-28T10:12:23.366Z,32.89
2022-09-28T10:14:51.659Z,30.69
2022-09-28T10:17:26.900Z,31.24
2022-09-28T10:19:57.080Z,32.24
2022-09-28T10:22:28.769Z,32.29
2022-09-28T10:24:58.839Z,32.53
2022-09-28T10:27:30.982Z,31.99
2022-09-28T10:30:03.444Z,31.70
2022-09-28T10:32:40.039Z,31.71
2022-09-28T10:35:22.905Z,31.41
2022-09-28T10:37:59.425Z,32.42
2022-09-28T10:40:32.964Z,33.19
2022-09-28T10:43:03.147Z,32.03
2022-09-28T10:45:37.353Z,32.39
2022-09-28T10:48:15.422Z,33.34
2022-09-28T10:50:44.363Z,31.05
2022-09-28T10:53:20.654Z,32.41
2022-09-28T10:56:00.709Z,33.32
2022-09-28T10:58:32.295Z,34.42
2022-09-28T11:01:09.287Z,32.69
2022-09-28T11:03:50.315Z,32.55
2022-09-28T11:06:26.124Z,32.81
2022-09-28T11:08:58.458Z,33.31
2022-09-28T11:11:27.270Z,33.54
2022-09-28T11:14:00.596Z,33.40
2022-09-28T11:16:30.942Z,33.76
2022-09-28T11:19:00.987Z,33.11
2022-09-28T11:21:32.891Z,32.16
2022-09-28T11:24:07.480Z,32.41
2022-09-28T11:26:42.540Z,33.31
2022-09-28T11:29:23.551Z,32.83
2022-09-28T11:31:52.794Z,32.46
2022-09-28T11:34:41.490Z,33.20
2022-09-28T11:37:43.239Z,32.89
2022-09-28T11:40:29.060Z,33.21
2022-09-28T11:43:10.068Z,32.53
2022-09-28T11:45:52.769Z,31.62
2022-09-28T11:48:27.412Z,32.13
2022-09-28T11:51:01.227Z,33.38
2022-09-28T11:53:36.046Z,33.03
2022-09-28T11:56:15.652Z,32.97
2022-09-28T11:58:48.308Z,33.06
2022-09-28T12:01:25.673Z,32.67
2022-09-28T12:03:59.792Z,32.83
2022-09-28T12:06:36.165Z,33.40
2022-09-28T12:09:12.189Z,32.92
2022-09-28T12:11:45.548Z,32.09
2022-09-28T12:14:21.458Z,32.93
2022-09-28T12:17:10.981Z,31.48
2022-09-28T12:19:45.033Z,32.11
2022-09-28T12:22:20.724Z,32.42
2022-09-28T12:24:52.261Z,32.51
2022-09-28T12:27:31.462Z,31.55
2022-09-28T12:30:05.710Z,31.99
2022-09-28T12:32:40.473Z,31.09
2022-09-28T12:35:28.890Z,31.33
2022-09-28T12:38:17.092Z,32.50
2022-09-28T12:40:58.644Z,31.53
2022-09-28T12:43:55.217Z,30.99
2022-09-28T12:46:48.950Z,30.33
2022-09-28T12:50:33.282Z,30.58
2022-09-28T12:52:34.326Z,31.16
2022-09-28T12:55:28.844Z,31.00
2022-09-28T12:58:04.499Z,30.91
2022-09-28T13:00:43.100Z,30.91
2022-09-28T13:03:45.941Z,30.30
2022-09-28T13:06:46.814Z,31.23
2022-09-28T13:09:21.901Z,31.16
2022-09-28T13:12:02.552Z,31.15
2022-09-28T13:14:53.251Z,30.48
2022-09-28T13:17:34.107Z,30.25
2022-09-28T13:20:13.206Z,30.54
2022-09-28T13:22:55.233Z,30.75
2022-09-28T13:25:28.727Z,30.77
2022-09-28T13:28:01.087Z,31.18
2022-09-28T13:30:30.058Z,30.55
2022-09-28T13:33:02.458Z,29.99
2022-09-28T13:35:31.580Z,28.82
2022-09-28T13:38:44.950Z,29.90
2022-09-28T13:41:18.005Z,29.07
2022-09-28T13:44:23.908Z,29.50
2022-09-28T13:47:10.256Z,29.32
2022-09-28T13:49:52.195Z,29.14
2022-09-28T13:52:33.003Z,28.53
2022-09-28T13:55:20.147Z,29.49
2022-09-28T13:57:55.249Z,29.39
2022-09-28T14:00:29.111Z,29.58
2022-09-28T14:03:01.702Z,29.29
2022-09-28T14:06:07.273Z,29.15
2022-09-28T14:08:39.762Z,28.87
2022-09-28T14:11:42.065Z,27.56
2022-09-28T14:14:50.283Z,27.73
2022-09-28T14:17:55.125Z,28.33
2022-09-28T14:20:27.439Z,28.43
2022-09-28T14:23:21.089Z,29.14
2022-09-28T14:26:07.227Z,28.86
2022-09-28T14:28:50.411Z,28.35
2022-09-28T14:31:26.417Z,27.69
2022-09-28T14:34:00.140Z,26.86
2022-09-28T14:36:51.134Z,27.77
2022-09-28T14:39:46.380Z,27.52
2022-09-28T14:42:18.854Z,26.58
2022-09-28T14:45:34.914Z,26.81
2022-09-28T14:48:42.507Z,27.35
2022-09-28T14:51:45.664Z,26.54
2022-09-28T14:54:20.631Z,27.04
2022-09-28T14:56:59.889Z,26.97
2022-09-28T14:59:31.016Z,27.00
2022-09-28T15:02:02.442Z,26.57
2022-09-28T15:04:32.027Z,26.69
2022-09-28T15:07:00.377Z,26.42
2022-09-28T15:09:29.214Z,26.31
2022-09-28T15:12:02.550Z,26.00
2022-09-28T15:14:33.070Z,24.64
2022-09-28T15:17:08.984Z,24.63
2022-09-28T15:19:45.718Z,24.41
2022-09-28T15:22:17.712Z,23.67
2022-09-28T15:24:48.542Z,24.08
2022-09-28T15:27:19.302Z,24.17
2022-09-28T15:29:57.758Z,24.25
2022-09-28T15:32:26.686Z,24.36
2022-09-28T15:34:57.539Z,23.97
2022-09-28T15:37:29.096Z,23.66
2022-09-28T15:39:59.656Z,23.60
2022-09-28T15:42:31.273Z,23.84
2022-09-28T15:45:27.898Z,23.68
2022-09-28T15:48:20.843Z,23.48
2022-09-28T15:51:05.176Z,23.42
2022-09-28T15:53:34.516Z,23.13
2022-09-28T15:56:10.205Z,22.52
2022-09-28T15:58:40.544Z,22.46
2022-09-28T16:01:36.191Z,22.20
2022-09-28T16:04:39.821Z,22.04
2022-09-28T16:07:25.097Z,21.65
2022-09-28T16:10:01.442Z,21.75
2022-09-28T16:12:41.757Z,21.55
2022-09-28T16:15:20.497Z,21.81
2022-09-28T16:17:55.746Z,21.83
2022-09-28T16:20:29.616Z,21.76
2022-09-28T16:23:05.734Z,22.03
2022-09-28T16:25:37.300Z,21.77
2022-09-28T16:28:07.568Z,21.82
2022-09-28T16:30:37.298Z,21.59
2022-09-28T16:33:08.138Z,21.87
2022-09-28T16:35:52.076Z,21.99
2022-09-28T16:38:21.300Z,21.46
2022-09-28T16:40:53.974Z,21.60
2022-09-28T16:43:26.972Z,21.69
2022-09-28T16:45:58.486Z,21.16
2022-09-28T16:48:29.103Z,20.62
2022-09-28T16:50:57.765Z,20.98
2022-09-28T16:53:44.303Z,21.22
2022-09-28T16:56:14.040Z,20.69
2022-09-28T16:58:42.630Z,20.98
2022-09-28T17:01:13.706Z,20.82
2022-09-28T17:03:46.886Z,20.65
2022-09-28T17:06:16.714Z,20.90
2022-09-28T17:08:45.382Z,20.96
2022-09-28T17:11:20.478Z,20.58
2022-09-28T17:13:52.250Z,20.40
2022-09-28T17:16:49.292Z,20.29
2022-09-28T17:19:20.150Z,20.70
2022-09-28T17:21:49.500Z,20.85
2022-09-28T17:24:17.764Z,20.76
2022-09-28T17:26:47.040Z,20.81
2022-09-28T17:29:16.587Z,20.58
2022-09-28T17:31:47.876Z,20.22
2022-09-28T17:34:17.369Z,20.62
2022-09-28T17:36:46.757Z,20.86
2022-09-28T17:39:16.794Z,20.91
2022-09-28T17:41:45.347Z,20.35
2022-09-28T17:44:16.373Z,20.66
2022-09-28T17:46:49.231Z,20.47
2022-09-28T17:49:18.365Z,20.52
2022-09-28T17:51:46.845Z,20.69
2022-09-28T17:54:17.016Z,20.01
2022-09-28T17:56:46.252Z,21.19
2022-09-28T17:59:17.482Z,21.25
2022-09-28T18:01:48.492Z,21.36
2022-09-28T18:04:39.790Z,21.45
2022-09-28T18:07:05.637Z,20.96
2022-09-28T18:09:33.958Z,21.18
2022-09-28T18:12:06.459Z,21.07
2022-09-28T18:14:35.894Z,21.02
2022-09-28T18:17:05.957Z,20.88
2022-09-28T18:19:34.216Z,21.05
2022-09-28T18:22:02.550Z,21.18
2022-09-28T18:24:32.628Z,20.96
2022-09-28T18:27:01.149Z,20.72
2022-09-28T18:29:33.046Z,21.00
2022-09-28T18:32:02.104Z,20.86
2022-09-28T18:34:31.816Z,21.02
2022-09-28T18:37:00.104Z,21.20
2022-09-28T18:39:28.528Z,21.13
2022-09-28T18:41:56.828Z,21.12
2022-09-28T18:44:25.141Z,21.18
2022-09-28T18:46:53.442Z,21.08
2022-09-28T18:49:21.759Z,21.03
2022-09-28T18:51:51.612Z,21.04
2022-09-28T18:54:20.070Z,21.00
2022-09-28T18:56:49.925Z,21.06
2022-09-28T18:59:18.648Z,20.93
2022-09-28T19:01:47.077Z,21.07
2022-09-28T19:04:15.422Z,20.12
2022-09-28T19:06:44.896Z,21.17
2022-09-28T19:09:15.057Z,21.00
2022-09-28T19:11:44.297Z,20.74
2022-09-28T19:14:15.369Z,21.01
2022-09-28T19:16:44.664Z,20.45
2022-09-28T19:19:14.612Z,20.81
2022-09-28T20:48:29.845Z,19.11
2022-09-28T20:51:03.116Z,19.44
2022-09-28T20:53:31.504Z,19.43
2022-09-28T20:56:01.284Z,18.95
2022-09-28T20:58:30.151Z,19.23
2022-09-28T21:01:08.088Z,19.46
2022-09-28T21:03:38.706Z,19.31
2022-09-28T21:06:12.140Z,19.58
2022-09-28T21:08:40.704Z,19.52
2022-09-28T21:11:09.019Z,19.05
2022-09-28T21:13:37.251Z,18.47
2022-09-28T21:16:06.388Z,18.62
2022-09-28T21:18:34.772Z,18.95
2022-09-28T21:21:07.171Z,19.43
2022-09-28T21:23:36.119Z,19.62
2022-09-28T21:26:06.834Z,19.17
2022-09-28T21:28:35.810Z,18.07
2022-09-28T21:31:05.851Z,19.06
2022-09-28T21:33:34.471Z,19.27
2022-09-28T21:36:05.346Z,19.10
2022-09-28T21:38:34.093Z,19.11
2022-09-28T21:41:02.736Z,18.87
2022-09-28T21:43:32.487Z,19.00
2022-09-28T21:46:00.770Z,18.99
2022-09-28T21:48:30.493Z,19.14
2022-09-28T21:51:00.123Z,19.28
2022-09-28T21:53:31.871Z,19.31
2022-09-28T21:56:01.083Z,19.29
2022-09-28T21:58:31.467Z,19.27
2022-09-28T22:01:03.105Z,18.79
2022-09-28T22:03:32.701Z,18.29
2022-09-28T22:06:01.151Z,18.85
2022-09-28T22:08:31.432Z,18.59
2022-09-28T22:11:01.801Z,18.54
2022-09-28T22:13:30.492Z,18.90
2022-09-28T22:15:59.363Z,18.94
2022-09-28T22:18:28.913Z,19.30
2022-09-28T22:21:01.372Z,19.17
2022-09-28T22:23:31.548Z,19.20
2022-09-28T22:26:01.203Z,19.34
2022-09-28T22:28:29.989Z,18.89
2022-09-28T22:30:58.852Z,18.66
2022-09-28T22:33:27.443Z,18.73
2022-09-28T22:35:56.458Z,18.85
2022-09-28T22:38:26.116Z,19.20
2022-09-28T22:40:58.439Z,18.61
2022-09-28T22:43:28.480Z,17.41
2022-09-28T22:46:03.422Z,17.99
2022-09-28T22:48:31.867Z,18.61
2022-09-28T22:51:00.557Z,18.90
2022-09-28T22:53:29.665Z,18.79
2022-09-28T22:56:01.538Z,18.93
2022-09-28T22:58:29.820Z,18.93
2022-09-28T23:00:58.251Z,18.86
2022-09-28T23:03:26.560Z,19.24
2022-09-28T23:05:55.436Z,18.58
2022-09-28T23:08:24.720Z,19.01
2022-09-28T23:10:53.192Z,18.82
2022-09-28T23:13:22.832Z,19.31
2022-09-28T23:15:58.314Z,19.39
2022-09-28T23:18:29.118Z,19.33
2022-09-28T23:20:58.269Z,19.32
2022-09-28T23:23:26.900Z,18.63
2022-09-28T23:25:55.792Z,18.70
2022-09-28T23:28:27.352Z,18.83
2022-09-28T23:30:55.676Z,18.76
2022-09-28T23:33:23.990Z,18.96
2022-09-28T23:35:52.229Z,19.04
2022-09-28T23:38:20.463Z,19.09
2022-09-28T23:40:49.254Z,19.07
2022-09-28T23:43:17.511Z,19.06
2022-09-28T23:45:47.444Z,18.61
2022-09-28T23:48:15.779Z,17.69
2022-09-28T23:50:44.757Z,18.00
2022-09-28T23:53:14.919Z,18.18
2022-09-28T23:55:44.247Z,18.00
2022-09-28T23:58:13.131Z,17.63
